sensor_id;sensor_type;location;lat;lon;timestamp;pressure;altitude;pressure_sealevel;temperature;humidity
54122;BME280;40029;58.708;50.190;2023-01-25T00:00:34;100899.47;;;-3.02;47.62
54122;BME280;40029;58.708;50.190;2023-01-25T00:03:05;100917.13;;;-2.84;47.53
54122;BME280;40029;58.708;50.190;2023-01-25T00:05:36;100940.44;;;-2.73;47.47
54122;BME280;40029;58.708;50.190;2023-01-25T00:08:07;100933.13;;;-2.88;47.73
54122;BME280;40029;58.708;50.190;2023-01-25T00:10:38;100940.94;;;-2.84;47.49
54122;BME280;40029;58.708;50.190;2023-01-25T00:13:09;100948.06;;;-2.73;47.72
54122;BME280;40029;58.708;50.190;2023-01-25T00:15:40;100911.94;;;-2.86;46.96
54122;BME280;40029;58.708;50.190;2023-01-25T00:18:11;100933.78;;;-2.68;47.02
54122;BME280;40029;58.708;50.190;2023-01-25T00:20:42;100934.91;;;-2.60;46.86
54122;BME280;40029;58.708;50.190;2023-01-25T00:23:13;100942.00;;;-2.52;47.05
54122;BME280;40029;58.708;50.190;2023-01-25T00:25:44;100888.41;;;-2.79;47.11
54122;BME280;40029;58.708;50.190;2023-01-25T00:28:15;100936.75;;;-2.56;47.08
54122;BME280;40029;58.708;50.190;2023-01-25T00:30:47;100842.66;;;-2.98;46.85
54122;BME280;40029;58.708;50.190;2023-01-25T00:35:49;100933.88;;;-2.41;46.88
54122;BME280;40029;58.708;50.190;2023-01-25T00:38:29;100932.06;;;-2.44;47.24
54122;BME280;40029;58.708;50.190;2023-01-25T00:41:03;100931.88;;;-2.50;47.43
54122;BME280;40029;58.708;50.190;2023-01-25T00:43:34;100931.91;;;-2.48;47.83
54122;BME280;40029;58.708;50.190;2023-01-25T00:46:05;100876.97;;;-2.64;47.83
54122;BME280;40029;58.708;50.190;2023-01-25T00:48:36;100920.28;;;-2.40;47.06
54122;BME280;40029;58.708;50.190;2023-01-25T00:51:07;100933.19;;;-2.36;47.23
54122;BME280;40029;58.708;50.190;2023-01-25T00:53:38;100935.06;;;-2.30;47.44
54122;BME280;40029;58.708;50.190;2023-01-25T00:56:09;100929.53;;;-2.44;47.74
54122;BME280;40029;58.708;50.190;2023-01-25T00:58:41;100920.13;;;-2.45;48.27
54122;BME280;40029;58.708;50.190;2023-01-25T01:01:14;100915.22;;;-2.39;47.98
54122;BME280;40029;58.708;50.190;2023-01-25T01:03:45;100919.41;;;-2.41;48.15
54122;BME280;40029;58.708;50.190;2023-01-25T01:06:17;100914.22;;;-2.44;47.63
54122;BME280;40029;58.708;50.190;2023-01-25T01:08:49;100915.31;;;-2.36;48.16
54122;BME280;40029;58.708;50.190;2023-01-25T01:11:20;100914.47;;;-2.36;47.47
54122;BME280;40029;58.708;50.190;2023-01-25T01:13:51;100913.78;;;-2.31;47.78
54122;BME280;40029;58.708;50.190;2023-01-25T01:16:22;100899.34;;;-2.30;47.47
54122;BME280;40029;58.708;50.190;2023-01-25T01:18:56;100899.53;;;-2.24;47.69
54122;BME280;40029;58.708;50.190;2023-01-25T01:21:27;100891.81;;;-2.26;47.48
54122;BME280;40029;58.708;50.190;2023-01-25T01:23:58;100896.75;;;-2.32;47.69
54122;BME280;40029;58.708;50.190;2023-01-25T01:26:29;100890.78;;;-2.32;47.89
54122;BME280;40029;58.708;50.190;2023-01-25T01:29:00;100889.19;;;-2.29;47.47
54122;BME280;40029;58.708;50.190;2023-01-25T01:31:32;100886.53;;;-2.32;47.90
54122;BME280;40029;58.708;50.190;2023-01-25T01:34:13;100882.44;;;-2.54;48.83
54122;BME280;40029;58.708;50.190;2023-01-25T01:36:45;100887.69;;;-2.49;48.78
54122;BME280;40029;58.708;50.190;2023-01-25T01:39:16;100876.84;;;-2.42;48.31
54122;BME280;40029;58.708;50.190;2023-01-25T01:41:47;100854.72;;;-2.68;48.30
54122;BME280;40029;58.708;50.190;2023-01-25T01:44:20;100893.75;;;-2.45;48.15
54122;BME280;40029;58.708;50.190;2023-01-25T01:47:16;100882.88;;;-2.40;47.81
54122;BME280;40029;58.708;50.190;2023-01-25T01:49:55;100879.50;;;-2.39;47.85
54122;BME280;40029;58.708;50.190;2023-01-25T01:52:30;100878.47;;;-2.44;48.06
54122;BME280;40029;58.708;50.190;2023-01-25T01:55:15;100882.34;;;-2.55;48.36
54122;BME280;40029;58.708;50.190;2023-01-25T01:57:54;100874.69;;;-2.55;48.37
54122;BME280;40029;58.708;50.190;2023-01-25T02:00:33;100892.63;;;-2.54;48.30
54122;BME280;40029;58.708;50.190;2023-01-25T02:03:05;100889.97;;;-2.57;48.19
54122;BME280;40029;58.708;50.190;2023-01-25T02:05:47;100886.81;;;-2.49;48.21
54122;BME280;40029;58.708;50.190;2023-01-25T02:08:21;100887.56;;;-2.52;48.42
54122;BME280;40029;58.708;50.190;2023-01-25T02:10:53;100888.41;;;-2.53;48.11
54122;BME280;40029;58.708;50.190;2023-01-25T02:13:25;100892.06;;;-2.45;48.40
54122;BME280;40029;58.708;50.190;2023-01-25T02:15:57;100865.28;;;-2.58;47.93
54122;BME280;40029;58.708;50.190;2023-01-25T02:18:28;100894.94;;;-2.34;47.75
54122;BME280;40029;58.708;50.190;2023-01-25T02:21:00;100885.59;;;-2.34;48.42
54122;BME280;40029;58.708;50.190;2023-01-25T02:23:49;100885.81;;;-2.28;48.39
54122;BME280;40029;58.708;50.190;2023-01-25T02:26:22;100886.63;;;-2.29;48.21
54122;BME280;40029;58.708;50.190;2023-01-25T02:29:00;100892.75;;;-2.23;48.26
54122;BME280;40029;58.708;50.190;2023-01-25T02:31:33;100881.59;;;-2.26;47.94
54122;BME280;40029;58.708;50.190;2023-01-25T02:34:04;100887.50;;;-2.28;48.32
54122;BME280;40029;58.708;50.190;2023-01-25T02:36:35;100893.38;;;-2.31;48.23
54122;BME280;40029;58.708;50.190;2023-01-25T02:39:09;100885.81;;;-2.28;48.17
54122;BME280;40029;58.708;50.190;2023-01-25T02:41:44;100877.41;;;-2.25;47.94
54122;BME280;40029;58.708;50.190;2023-01-25T02:44:24;100885.00;;;-2.27;48.43
54122;BME280;40029;58.708;50.190;2023-01-25T02:46:56;100880.00;;;-2.23;47.88
54122;BME280;40029;58.708;50.190;2023-01-25T02:49:27;100865.44;;;-2.26;47.95
54122;BME280;40029;58.708;50.190;2023-01-25T02:51:58;100870.75;;;-2.20;47.98
54122;BME280;40029;58.708;50.190;2023-01-25T02:54:29;100879.44;;;-2.13;48.32
54122;BME280;40029;58.708;50.190;2023-01-25T02:57:00;100871.75;;;-2.15;47.76
54122;BME280;40029;58.708;50.190;2023-01-25T02:59:39;100868.06;;;-2.24;47.93
54122;BME280;40029;58.708;50.190;2023-01-25T03:02:10;100852.72;;;-2.24;48.14
54122;BME280;40029;58.708;50.190;2023-01-25T03:04:41;100865.88;;;-2.12;48.07
54122;BME280;40029;58.708;50.190;2023-01-25T03:07:12;100869.38;;;-2.09;48.15
54122;BME280;40029;58.708;50.190;2023-01-25T03:09:43;100865.13;;;-2.08;47.55
54122;BME280;40029;58.708;50.190;2023-01-25T03:12:15;100866.94;;;-2.04;47.81
54122;BME280;40029;58.708;50.190;2023-01-25T03:14:48;100878.13;;;-2.01;47.68
54122;BME280;40029;58.708;50.190;2023-01-25T03:17:19;100873.88;;;-2.00;48.04
54122;BME280;40029;58.708;50.190;2023-01-25T03:19:50;100861.06;;;-2.03;48.24
54122;BME280;40029;58.708;50.190;2023-01-25T03:22:23;100866.16;;;-2.03;48.01
54122;BME280;40029;58.708;50.190;2023-01-25T03:24:54;100872.13;;;-2.03;47.57
54122;BME280;40029;58.708;50.190;2023-01-25T03:27:30;100860.22;;;-2.02;47.64
54122;BME280;40029;58.708;50.190;2023-01-25T03:30:14;100874.09;;;-1.94;47.49
54122;BME280;40029;58.708;50.190;2023-01-25T03:32:45;100864.56;;;-1.99;47.63
54122;BME280;40029;58.708;50.190;2023-01-25T03:35:21;100863.59;;;-2.03;47.80
54122;BME280;40029;58.708;50.190;2023-01-25T03:37:52;100825.75;;;-2.16;47.63
54122;BME280;40029;58.708;50.190;2023-01-25T03:40:24;100863.00;;;-1.94;47.89
54122;BME280;40029;58.708;50.190;2023-01-25T03:42:56;100875.09;;;-1.89;47.84
54122;BME280;40029;58.708;50.190;2023-01-25T03:45:27;100862.22;;;-1.92;47.77
54122;BME280;40029;58.708;50.190;2023-01-25T03:47:58;100867.25;;;-1.95;47.85
54122;BME280;40029;58.708;50.190;2023-01-25T03:50:29;100880.38;;;-1.83;47.21
54122;BME280;40029;58.708;50.190;2023-01-25T03:53:00;100882.91;;;-1.83;47.42
54122;BME280;40029;58.708;50.190;2023-01-25T03:55:36;100876.19;;;-1.81;47.34
54122;BME280;40029;58.708;50.190;2023-01-25T03:58:08;100879.72;;;-1.77;47.22
54122;BME280;40029;58.708;50.190;2023-01-25T04:00:39;100869.34;;;-1.82;47.64
54122;BME280;40029;58.708;50.190;2023-01-25T04:03:10;100879.06;;;-1.70;46.99
54122;BME280;40029;58.708;50.190;2023-01-25T04:05:42;100880.94;;;-1.64;47.18
54122;BME280;40029;58.708;50.190;2023-01-25T04:08:14;100876.66;;;-1.65;47.27
54122;BME280;40029;58.708;50.190;2023-01-25T04:11:06;100874.16;;;-1.62;46.96
54122;BME280;40029;58.708;50.190;2023-01-25T04:13:37;100826.41;;;-1.95;47.53
54122;BME280;40029;58.708;50.190;2023-01-25T04:16:12;100875.59;;;-1.72;47.67
54122;BME280;40029;58.708;50.190;2023-01-25T04:19:03;100872.22;;;-1.71;47.25
54122;BME280;40029;58.708;50.190;2023-01-25T04:21:35;100851.47;;;-1.82;46.84
54122;BME280;40029;58.708;50.190;2023-01-25T04:24:06;100893.81;;;-1.61;47.34
54122;BME280;40029;58.708;50.190;2023-01-25T04:26:42;100894.69;;;-1.59;46.75
54122;BME280;40029;58.708;50.190;2023-01-25T04:29:13;100860.97;;;-1.78;47.09
54122;BME280;40029;58.708;50.190;2023-01-25T04:31:44;100894.84;;;-1.55;46.95
54122;BME280;40029;58.708;50.190;2023-01-25T04:34:16;100892.19;;;-1.58;47.17
54122;BME280;40029;58.708;50.190;2023-01-25T04:36:47;100897.25;;;-1.59;47.10
54122;BME280;40029;58.708;50.190;2023-01-25T04:39:19;100877.41;;;-1.68;47.37
54122;BME280;40029;58.708;50.190;2023-01-25T04:41:51;100895.63;;;-1.57;46.86
54122;BME280;40029;58.708;50.190;2023-01-25T04:44:22;100884.38;;;-1.62;47.21
54122;BME280;40029;58.708;50.190;2023-01-25T04:46:53;100900.06;;;-1.50;46.86
54122;BME280;40029;58.708;50.190;2023-01-25T04:49:24;100906.13;;;-1.48;46.66
54122;BME280;40029;58.708;50.190;2023-01-25T04:51:55;100892.38;;;-1.52;46.68
54122;BME280;40029;58.708;50.190;2023-01-25T04:54:27;100842.25;;;-1.77;46.83
54122;BME280;40029;58.708;50.190;2023-01-25T04:56:58;100890.78;;;-1.48;46.83
54122;BME280;40029;58.708;50.190;2023-01-25T04:59:30;100857.81;;;-1.69;46.98
54122;BME280;40029;58.708;50.190;2023-01-25T05:02:01;100875.38;;;-1.49;46.97
54122;BME280;40029;58.708;50.190;2023-01-25T05:04:33;100874.34;;;-1.56;46.77
54122;BME280;40029;58.708;50.190;2023-01-25T05:07:04;100886.31;;;-1.55;47.18
54122;BME280;40029;58.708;50.190;2023-01-25T05:09:35;100871.59;;;-1.62;47.25
54122;BME280;40029;58.708;50.190;2023-01-25T05:12:07;100880.19;;;-1.60;47.17
54122;BME280;40029;58.708;50.190;2023-01-25T05:14:57;100880.38;;;-1.54;46.99
54122;BME280;40029;58.708;50.190;2023-01-25T05:17:28;100876.13;;;-1.54;46.95
54122;BME280;40029;58.708;50.190;2023-01-25T05:19:59;100878.75;;;-1.51;46.75
54122;BME280;40029;58.708;50.190;2023-01-25T05:22:30;100882.88;;;-1.56;46.73
54122;BME280;40029;58.708;50.190;2023-01-25T05:25:01;100891.25;;;-1.61;47.71
54122;BME280;40029;58.708;50.190;2023-01-25T05:27:33;100890.41;;;-1.60;47.19
54122;BME280;40029;58.708;50.190;2023-01-25T05:30:28;100885.34;;;-1.59;47.51
54122;BME280;40029;58.708;50.190;2023-01-25T05:33:06;100861.66;;;-1.53;47.15
54122;BME280;40029;58.708;50.190;2023-01-25T05:35:37;100812.09;;;-1.88;47.23
54122;BME280;40029;58.708;50.190;2023-01-25T05:38:08;100874.16;;;-1.62;47.60
54122;BME280;40029;58.708;50.190;2023-01-25T05:40:39;100878.75;;;-1.51;47.37
54122;BME280;40029;58.708;50.190;2023-01-25T05:43:11;100885.66;;;-1.48;47.06
54122;BME280;40029;58.708;50.190;2023-01-25T05:45:43;100893.53;;;-1.40;47.13
54122;BME280;40029;58.708;50.190;2023-01-25T05:48:16;100879.84;;;-1.42;46.97
54122;BME280;40029;58.708;50.190;2023-01-25T05:50:48;100873.84;;;-1.44;47.37
54122;BME280;40029;58.708;50.190;2023-01-25T05:53:25;100877.25;;;-1.44;47.05
54122;BME280;40029;58.708;50.190;2023-01-25T05:56:03;100884.09;;;-1.43;46.75
54122;BME280;40029;58.708;50.190;2023-01-25T05:58:35;100879.00;;;-1.43;47.39
54122;BME280;40029;58.708;50.190;2023-01-25T06:01:07;100895.44;;;-1.33;47.38
54122;BME280;40029;58.708;50.190;2023-01-25T06:03:52;100892.19;;;-1.28;47.00
54122;BME280;40029;58.708;50.190;2023-01-25T06:06:24;100892.97;;;-1.30;46.53
54122;BME280;40029;58.708;50.190;2023-01-25T06:08:56;100886.28;;;-1.27;46.84
54122;BME280;40029;58.708;50.190;2023-01-25T06:11:28;100888.09;;;-1.22;46.46
54122;BME280;40029;58.708;50.190;2023-01-25T06:13:59;100887.53;;;-1.11;46.59
54122;BME280;40029;58.708;50.190;2023-01-25T06:16:30;100881.66;;;-1.08;46.43
54122;BME280;40029;58.708;50.190;2023-01-25T06:19:11;100889.47;;;-1.02;46.67
54122;BME280;40029;58.708;50.190;2023-01-25T06:22:01;100880.91;;;-1.04;46.56
54122;BME280;40029;58.708;50.190;2023-01-25T06:24:32;100876.69;;;-1.02;46.08
54122;BME280;40029;58.708;50.190;2023-01-25T06:27:03;100881.78;;;-1.02;46.37
54122;BME280;40029;58.708;50.190;2023-01-25T06:29:34;100870.88;;;-0.96;45.74
54122;BME280;40029;58.708;50.190;2023-01-25T06:32:05;100872.53;;;-0.98;46.09
54122;BME280;40029;58.708;50.190;2023-01-25T06:34:36;100865.69;;;-0.99;46.01
54122;BME280;40029;58.708;50.190;2023-01-25T06:37:07;100848.53;;;-1.02;45.87
54122;BME280;40029;58.708;50.190;2023-01-25T06:39:38;100843.41;;;-1.04;45.98
54122;BME280;40029;58.708;50.190;2023-01-25T06:42:09;100872.75;;;-0.89;45.78
54122;BME280;40029;58.708;50.190;2023-01-25T06:44:40;100876.22;;;-0.87;46.10
54122;BME280;40029;58.708;50.190;2023-01-25T06:47:12;100860.13;;;-0.85;46.17
54122;BME280;40029;58.708;50.190;2023-01-25T06:49:43;100878.91;;;-0.83;45.73
54122;BME280;40029;58.708;50.190;2023-01-25T06:52:14;100869.44;;;-0.85;45.81
54122;BME280;40029;58.708;50.190;2023-01-25T06:54:45;100871.22;;;-0.83;45.44
54122;BME280;40029;58.708;50.190;2023-01-25T06:57:16;100877.38;;;-0.76;45.07
54122;BME280;40029;58.708;50.190;2023-01-25T06:59:47;100867.91;;;-0.80;45.33
54122;BME280;40029;58.708;50.190;2023-01-25T07:02:18;100872.06;;;-0.84;45.25
54122;BME280;40029;58.708;50.190;2023-01-25T07:04:49;100854.84;;;-0.89;45.33
54122;BME280;40029;58.708;50.190;2023-01-25T07:07:20;100872.41;;;-0.70;45.87
54122;BME280;40029;58.708;50.190;2023-01-25T07:09:51;100853.31;;;-0.83;45.54
54122;BME280;40029;58.708;50.190;2023-01-25T07:12:22;100878.63;;;-0.60;45.18
54122;BME280;40029;58.708;50.190;2023-01-25T07:14:53;100884.69;;;-0.57;45.26
54122;BME280;40029;58.708;50.190;2023-01-25T07:17:24;100868.50;;;-0.56;45.00
54122;BME280;40029;58.708;50.190;2023-01-25T07:19:55;100875.16;;;-0.62;44.66
54122;BME280;40029;58.708;50.190;2023-01-25T07:22:26;100868.31;;;-0.63;45.54
54122;BME280;40029;58.708;50.190;2023-01-25T07:24:57;100868.31;;;-0.63;45.20
54122;BME280;40029;58.708;50.190;2023-01-25T07:27:32;100876.22;;;-0.54;44.83
54122;BME280;40029;58.708;50.190;2023-01-25T07:30:03;100878.09;;;-0.47;45.39
54122;BME280;40029;58.708;50.190;2023-01-25T07:32:35;100878.16;;;-0.44;45.11
54122;BME280;40029;58.708;50.190;2023-01-25T07:35:06;100881.50;;;-0.48;44.51
54122;BME280;40029;58.708;50.190;2023-01-25T07:37:37;100864.28;;;-0.55;44.95
54122;BME280;40029;58.708;50.190;2023-01-25T07:40:09;100854.94;;;-0.52;44.40
54122;BME280;40029;58.708;50.190;2023-01-25T07:42:40;100872.09;;;-0.47;44.59
54122;BME280;40029;58.708;50.190;2023-01-25T07:45:16;100869.59;;;-0.46;45.01
54122;BME280;40029;58.708;50.190;2023-01-25T07:47:47;100874.03;;;-0.39;45.05
54122;BME280;40029;58.708;50.190;2023-01-25T07:50:18;100875.72;;;-0.39;44.64
54122;BME280;40029;58.708;50.190;2023-01-25T07:52:49;100868.84;;;-0.42;44.90
54122;BME280;40029;58.708;50.190;2023-01-25T07:55:20;100860.47;;;-0.35;44.69
54122;BME280;40029;58.708;50.190;2023-01-25T07:57:54;100852.63;;;-0.42;44.57
54122;BME280;40029;58.708;50.190;2023-01-25T08:00:26;100848.41;;;-0.40;45.04
54122;BME280;40029;58.708;50.190;2023-01-25T08:02:57;100863.44;;;-0.54;45.04
54122;BME280;40029;58.708;50.190;2023-01-25T08:05:29;100864.50;;;-0.46;45.38
54122;BME280;40029;58.708;50.190;2023-01-25T08:08:00;100859.50;;;-0.40;44.54
54122;BME280;40029;58.708;50.190;2023-01-25T08:10:31;100854.47;;;-0.35;44.49
54122;BME280;40029;58.708;50.190;2023-01-25T08:13:02;100853.41;;;-0.45;45.38
54122;BME280;40029;58.708;50.190;2023-01-25T08:15:33;100860.22;;;-0.45;45.41
54122;BME280;40029;58.708;50.190;2023-01-25T08:18:04;100849.34;;;-0.37;45.00
54122;BME280;40029;58.708;50.190;2023-01-25T08:20:35;100859.06;;;-0.22;44.54
54122;BME280;40029;58.708;50.190;2023-01-25T08:23:09;100864.19;;;-0.22;44.30
54122;BME280;40029;58.708;50.190;2023-01-25T08:25:40;100804.75;;;-0.45;44.45
54122;BME280;40029;58.708;50.190;2023-01-25T08:28:11;100852.22;;;-0.23;44.83
54122;BME280;40029;58.708;50.190;2023-01-25T08:30:42;100847.00;;;-0.28;45.30
54122;BME280;40029;58.708;50.190;2023-01-25T08:33:13;100850.44;;;-0.26;44.48
54122;BME280;40029;58.708;50.190;2023-01-25T08:35:53;100841.09;;;-0.25;44.54
54122;BME280;40029;58.708;50.190;2023-01-25T08:38:25;100844.78;;;-0.12;44.43
54122;BME280;40029;58.708;50.190;2023-01-25T08:41:08;100836.34;;;-0.08;44.79
54122;BME280;40029;58.708;50.190;2023-01-25T08:43:39;100835.50;;;-0.07;44.49
54122;BME280;40029;58.708;50.190;2023-01-25T08:46:12;100835.31;;;-0.15;44.69
54122;BME280;40029;58.708;50.190;2023-01-25T08:48:43;100829.63;;;-0.03;44.49
54122;BME280;40029;58.708;50.190;2023-01-25T08:51:16;100837.16;;;-0.09;44.84
54122;BME280;40029;58.708;50.190;2023-01-25T08:53:47;100826.88;;;-0.11;45.01
54122;BME280;40029;58.708;50.190;2023-01-25T08:56:19;100821.09;;;-0.02;44.71
54122;BME280;40029;58.708;50.190;2023-01-25T08:58:50;100814.38;;;0.03;44.89
54122;BME280;40029;58.708;50.190;2023-01-25T09:01:21;100803.25;;;0.03;44.57
54122;BME280;40029;58.708;50.190;2023-01-25T09:03:53;100820.22;;;-0.04;44.49
54122;BME280;40029;58.708;50.190;2023-01-25T09:06:24;100813.66;;;0.09;44.25
54122;BME280;40029;58.708;50.190;2023-01-25T09:08:55;100818.03;;;0.14;44.24
54122;BME280;40029;58.708;50.190;2023-01-25T09:11:26;100820.56;;;0.13;44.40
54122;BME280;40029;58.708;50.190;2023-01-25T09:13:57;100817.19;;;0.15;43.86
54122;BME280;40029;58.708;50.190;2023-01-25T09:16:28;100797.53;;;0.14;44.13
54122;BME280;40029;58.708;50.190;2023-01-25T09:19:01;100796.78;;;0.20;44.71
54122;BME280;40029;58.708;50.190;2023-01-25T09:21:33;100789.81;;;0.13;44.71
54122;BME280;40029;58.708;50.190;2023-01-25T09:24:05;100783.63;;;0.03;44.52
54122;BME280;40029;58.708;50.190;2023-01-25T09:26:39;100778.59;;;0.08;45.14
54122;BME280;40029;58.708;50.190;2023-01-25T09:29:11;100765.66;;;0.02;44.93
54122;BME280;40029;58.708;50.190;2023-01-25T09:31:42;100756.47;;;0.11;45.00
54122;BME280;40029;58.708;50.190;2023-01-25T09:34:17;100763.63;;;0.28;44.38
54122;BME280;40029;58.708;50.190;2023-01-25T09:36:49;100765.47;;;0.35;44.73
54122;BME280;40029;58.708;50.190;2023-01-25T09:39:20;100757.81;;;0.36;44.47
54122;BME280;40029;58.708;50.190;2023-01-25T09:44:53;100769.22;;;0.52;43.56
54122;BME280;40029;58.708;50.190;2023-01-25T09:47:44;100762.78;;;0.29;44.02
54122;BME280;40029;58.708;50.190;2023-01-25T09:50:31;100758.66;;;0.35;44.34
54122;BME280;40029;58.708;50.190;2023-01-25T09:53:23;100760.53;;;0.44;44.43
54122;BME280;40029;58.708;50.190;2023-01-25T09:55:59;100756.00;;;0.31;44.51
54122;BME280;40029;58.708;50.190;2023-01-25T09:58:33;100749.13;;;0.30;44.84
54122;BME280;40029;58.708;50.190;2023-01-25T10:04:38;100738.69;;;0.20;45.19
54122;BME280;40029;58.708;50.190;2023-01-25T10:07:34;100743.34;;;0.40;44.67
54122;BME280;40029;58.708;50.190;2023-01-25T10:10:15;100738.94;;;0.33;44.80
54122;BME280;40029;58.708;50.190;2023-01-25T10:12:48;100745.91;;;0.38;44.07
54122;BME280;40029;58.708;50.190;2023-01-25T10:15:26;100713.50;;;-0.02;44.32
54122;BME280;40029;58.708;50.190;2023-01-25T10:18:06;100746.63;;;0.33;44.26
54122;BME280;40029;58.708;50.190;2023-01-25T10:23:50;100730.25;;;0.24;45.01
54122;BME280;40029;58.708;50.190;2023-01-25T10:26:27;100715.53;;;0.14;45.41
54122;BME280;40029;58.708;50.190;2023-01-25T10:29:19;100713.91;;;0.19;44.56
54122;BME280;40029;58.708;50.190;2023-01-25T10:32:34;100714.41;;;0.00;45.53
54122;BME280;40029;58.708;50.190;2023-01-25T10:34:48;100707.75;;;0.10;45.33
54122;BME280;40029;58.708;50.190;2023-01-25T10:37:31;100699.84;;;-0.01;45.33
54122;BME280;40029;58.708;50.190;2023-01-25T10:43:05;100699.16;;;0.08;44.83
54122;BME280;40029;58.708;50.190;2023-01-25T10:45:37;100687.94;;;0.01;45.01
54122;BME280;40029;58.708;50.190;2023-01-25T10:48:13;100681.91;;;-0.03;45.63
54122;BME280;40029;58.708;50.190;2023-01-25T10:50:48;100679.41;;;0.01;45.75
54122;BME280;40029;58.708;50.190;2023-01-25T10:58:43;100666.53;;;-0.03;45.80
54122;BME280;40029;58.708;50.190;2023-01-25T11:01:30;100666.44;;;-0.07;45.48
54122;BME280;40029;58.708;50.190;2023-01-25T11:04:22;100663.97;;;-0.01;46.26
54122;BME280;40029;58.708;50.190;2023-01-25T11:06:53;100648.56;;;-0.04;45.60
54122;BME280;40029;58.708;50.190;2023-01-25T11:09:35;100664.13;;;0.05;45.90
54122;BME280;40029;58.708;50.190;2023-01-25T11:14:41;100664.16;;;0.08;45.08
54122;BME280;40029;58.708;50.190;2023-01-25T11:17:29;100659.16;;;0.14;44.89
54122;BME280;40029;58.708;50.190;2023-01-25T11:20:18;100655.47;;;0.00;46.08
54122;BME280;40029;58.708;50.190;2023-01-25T11:22:53;100640.75;;;-0.10;45.75
54122;BME280;40029;58.708;50.190;2023-01-25T11:25:26;100655.25;;;-0.11;45.91
54122;BME280;40029;58.708;50.190;2023-01-25T11:28:15;100652.84;;;-0.03;46.32
54122;BME280;40029;58.708;50.190;2023-01-25T11:30:48;100631.19;;;-0.20;45.76
54122;BME280;40029;58.708;50.190;2023-01-25T11:33:21;100663.81;;;-0.10;45.72
54122;BME280;40029;58.708;50.190;2023-01-25T11:38:24;100655.34;;;-0.06;45.60
54122;BME280;40029;58.708;50.190;2023-01-25T11:52:38;100633.56;;;-0.30;47.07
54122;BME280;40029;58.708;50.190;2023-01-25T11:55:42;100629.41;;;-0.23;46.84
54122;BME280;40029;58.708;50.190;2023-01-25T12:07:15;100619.00;;;-0.31;47.15
54122;BME280;40029;58.708;50.190;2023-01-25T12:30:29;100627.09;;;-0.55;48.45
54122;BME280;40029;58.708;50.190;2023-01-25T12:39:15;100622.16;;;-0.44;48.09
54122;BME280;40029;58.708;50.190;2023-01-25T12:45:03;100613.22;;;-0.64;52.77
54122;BME280;40029;58.708;50.190;2023-01-25T12:47:39;100575.88;;;-0.97;52.88
54122;BME280;40029;58.708;50.190;2023-01-25T12:50:24;100625.03;;;-0.69;52.40
54122;BME280;40029;58.708;50.190;2023-01-25T12:55:48;100578.22;;;-0.65;51.47
54122;BME280;40029;58.708;50.190;2023-01-25T12:58:40;100587.50;;;-0.70;51.12
54122;BME280;40029;58.708;50.190;2023-01-25T13:01:39;100585.00;;;-0.67;50.89
54122;BME280;40029;58.708;50.190;2023-01-25T13:07:17;100592.63;;;-0.70;50.32
54122;BME280;40029;58.708;50.190;2023-01-25T13:10:12;100576.06;;;-0.88;51.22
54122;BME280;40029;58.708;50.190;2023-01-25T13:12:58;100576.25;;;-0.77;50.52
54122;BME280;40029;58.708;50.190;2023-01-25T13:15:41;100576.31;;;-0.76;50.66
54122;BME280;40029;58.708;50.190;2023-01-25T13:21:00;100562.78;;;-0.68;49.86
54122;BME280;40029;58.708;50.190;2023-01-25T13:23:41;100573.25;;;-0.58;49.97
54122;BME280;40029;58.708;50.190;2023-01-25T13:28:57;100566.34;;;-0.63;50.25
54122;BME280;40029;58.708;50.190;2023-01-25T13:34:11;100542.53;;;-0.59;50.32
54122;BME280;40029;58.708;50.190;2023-01-25T13:36:44;100558.34;;;-0.77;50.14
54122;BME280;40029;58.708;50.190;2023-01-25T13:42:27;100549.19;;;-0.67;50.52
54122;BME280;40029;58.708;50.190;2023-01-25T13:45:01;100528.75;;;-0.66;50.22
54122;BME280;40029;58.708;50.190;2023-01-25T13:47:36;100531.56;;;-0.52;49.75
54122;BME280;40029;58.708;50.190;2023-01-25T13:50:29;100527.28;;;-0.53;49.45
54122;BME280;40029;58.708;50.190;2023-01-25T13:53:02;100527.22;;;-0.56;50.30
54122;BME280;40029;58.708;50.190;2023-01-25T13:55:38;100513.28;;;-0.70;50.53
54122;BME280;40029;58.708;50.190;2023-01-25T14:00:55;100502.44;;;-0.57;49.95
54122;BME280;40029;58.708;50.190;2023-01-25T14:03:29;100511.22;;;-0.46;49.42
54122;BME280;40029;58.708;50.190;2023-01-25T14:06:01;100503.22;;;-0.63;50.31
54122;BME280;40029;58.708;50.190;2023-01-25T14:08:33;100501.81;;;-0.45;49.63
54122;BME280;40029;58.708;50.190;2023-01-25T14:11:05;100488.72;;;-0.62;49.97
54122;BME280;40029;58.708;50.190;2023-01-25T14:13:36;100496.56;;;-0.53;50.25
54122;BME280;40029;58.708;50.190;2023-01-25T14:16:08;100490.75;;;-0.43;49.78
54122;BME280;40029;58.708;50.190;2023-01-25T14:18:39;100491.38;;;-0.56;50.23
54122;BME280;40029;58.708;50.190;2023-01-25T14:21:17;100490.56;;;-0.55;50.43
54122;BME280;40029;58.708;50.190;2023-01-25T14:23:48;100487.78;;;-0.66;51.11
54122;BME280;40029;58.708;50.190;2023-01-25T14:26:22;100479.50;;;-0.54;50.55
54122;BME280;40029;58.708;50.190;2023-01-25T14:28:56;100421.25;;;-1.11;51.34
54122;BME280;40029;58.708;50.190;2023-01-25T14:31:34;100472.88;;;-0.88;51.92
54122;BME280;40029;58.708;50.190;2023-01-25T14:34:16;100467.25;;;-0.69;51.63
54122;BME280;40029;58.708;50.190;2023-01-25T14:37:04;100469.38;;;-0.46;50.39
54122;BME280;40029;58.708;50.190;2023-01-25T14:39:35;100432.13;;;-0.78;50.64
54122;BME280;40029;58.708;50.190;2023-01-25T14:42:06;100464.16;;;-0.51;50.28
54122;BME280;40029;58.708;50.190;2023-01-25T14:44:38;100456.47;;;-0.53;50.80
54122;BME280;40029;58.708;50.190;2023-01-25T14:47:32;100454.91;;;-0.43;50.71
54122;BME280;40029;58.708;50.190;2023-01-25T14:53:22;100425.81;;;-0.49;50.05
54122;BME280;40029;58.708;50.190;2023-01-25T14:55:54;100413.97;;;-0.43;50.01